sensor_id;sensor_type;location;lat;lon;timestamp;pressure;altitude;pressure_sealevel;temperature;humidity
61676;BME280;47574;52.090;5.244;2023-12-04T00:02:07;101266.0;;;7.71;56.7
61676;BME280;47574;52.090;5.244;2023-12-04T00:03:44;101261.0;;;7.7;56.32
61676;BME280;47574;52.090;5.244;2023-12-04T00:05:21;101262.0;;;7.57;57.13
61676;BME280;47574;52.090;5.244;2023-12-04T00:08:35;101261.0;;;7.7;56.7
61676;BME280;47574;52.090;5.244;2023-12-04T00:10:12;101256.0;;;7.69;56.82
61676;BME280;47574;52.090;5.244;2023-12-04T00:11:50;101256.0;;;7.71;56.92
61676;BME280;47574;52.090;5.244;2023-12-04T00:15:02;101251.0;;;7.5;57.25
61676;BME280;47574;52.090;5.244;2023-12-04T00:16:40;101247.0;;;7.65;57.13
61676;BME280;47574;52.090;5.244;2023-12-04T00:18:17;101242.0;;;7.62;56.85
61676;BME280;47574;52.090;5.244;2023-12-04T00:19:54;101239.0;;;7.79;56.29
61676;BME280;47574;52.090;5.244;2023-12-04T00:23:08;101237.0;;;7.73;56.55
61676;BME280;47574;52.090;5.244;2023-12-04T00:24:44;101234.0;;;7.76;56.14
61676;BME280;47574;52.090;5.244;2023-12-04T00:26:21;101228.0;;;7.88;55.93
61676;BME280;47574;52.090;5.244;2023-12-04T00:29:34;101231.0;;;7.74;56.15
61676;BME280;47574;52.090;5.244;2023-12-04T00:31:12;101231.0;;;7.68;56.43
61676;BME280;47574;52.090;5.244;2023-12-04T00:32:47;101225.0;;;7.68;56.44
61676;BME280;47574;52.090;5.244;2023-12-04T00:34:24;101222.0;;;7.8;56.37
61676;BME280;47574;52.090;5.244;2023-12-04T00:37:38;101228.0;;;7.82;56.21
61676;BME280;47574;52.090;5.244;2023-12-04T00:39:14;101235.0;;;7.69;56.47
61676;BME280;47574;52.090;5.244;2023-12-04T00:40:51;101230.0;;;7.78;56.32
61676;BME280;47574;52.090;5.244;2023-12-04T00:44:05;101221.0;;;7.77;56.53
61676;BME280;47574;52.090;5.244;2023-12-04T00:45:41;101217.0;;;7.79;56.49
61676;BME280;47574;52.090;5.244;2023-12-04T00:47:18;101218.0;;;7.76;56.37
61676;BME280;47574;52.090;5.244;2023-12-04T00:50:30;101215.0;;;7.81;56.7
61676;BME280;47574;52.090;5.244;2023-12-04T00:52:06;101214.0;;;7.71;56.69
61676;BME280;47574;52.090;5.244;2023-12-04T00:53:43;101218.0;;;7.8;56.79
61676;BME280;47574;52.090;5.244;2023-12-04T00:55:19;101219.0;;;7.69;57.13
61676;BME280;47574;52.090;5.244;2023-12-04T00:58:33;101213.0;;;7.75;57.1
61676;BME280;47574;52.090;5.244;2023-12-04T01:00:11;101216.0;;;7.54;57.58
61676;BME280;47574;52.090;5.244;2023-12-04T01:01:48;101214.0;;;7.5;57.54
61676;BME280;47574;52.090;5.244;2023-12-04T01:05:00;101212.0;;;7.63;57.35
61676;BME280;47574;52.090;5.244;2023-12-04T01:06:36;101211.0;;;7.6;57.44
61676;BME280;47574;52.090;5.244;2023-12-04T01:08:12;101205.0;;;7.53;57.68
61676;BME280;47574;52.090;5.244;2023-12-04T01:11:24;101205.0;;;7.57;57.86
61676;BME280;47574;52.090;5.244;2023-12-04T01:13:01;101197.0;;;7.46;57.86
61676;BME280;47574;52.090;5.244;2023-12-04T01:14:37;101197.0;;;7.5;57.79
61676;BME280;47574;52.090;5.244;2023-12-04T01:16:14;101195.0;;;7.5;57.82
61676;BME280;47574;52.090;5.244;2023-12-04T01:19:27;101191.0;;;7.54;57.75
61676;BME280;47574;52.090;5.244;2023-12-04T01:21:05;101186.0;;;7.44;57.7
61676;BME280;47574;52.090;5.244;2023-12-04T01:22:41;101186.0;;;7.39;58.04
61676;BME280;47574;52.090;5.244;2023-12-04T01:25:55;101181.0;;;7.46;57.85
61676;BME280;47574;52.090;5.244;2023-12-04T01:27:32;101181.0;;;7.35;57.83
61676;BME280;47574;52.090;5.244;2023-12-04T01:29:08;101181.0;;;7.41;58.12
61676;BME280;47574;52.090;5.244;2023-12-04T01:32:20;101180.0;;;7.65;57.47
61676;BME280;47574;52.090;5.244;2023-12-04T01:33:57;101175.0;;;7.53;57.96
61676;BME280;47574;52.090;5.244;2023-12-04T01:35:34;101174.0;;;7.58;57.67
61676;BME280;47574;52.090;5.244;2023-12-04T01:37:11;101173.0;;;7.56;57.46
61676;BME280;47574;52.090;5.244;2023-12-04T01:40:24;101168.0;;;7.53;57.81
61676;BME280;47574;52.090;5.244;2023-12-04T01:42:00;101164.0;;;7.58;57.85
61676;BME280;47574;52.090;5.244;2023-12-04T01:43:38;101163.0;;;7.53;57.46
61676;BME280;47574;52.090;5.244;2023-12-04T01:46:52;101167.0;;;7.6;57.27
61676;BME280;47574;52.090;5.244;2023-12-04T01:48:29;101165.0;;;7.32;57.61
61676;BME280;47574;52.090;5.244;2023-12-04T01:50:07;101170.0;;;7.57;57.26
61676;BME280;47574;52.090;5.244;2023-12-04T01:53:22;101166.0;;;7.44;58.05
61676;BME280;47574;52.090;5.244;2023-12-04T01:54:59;101167.0;;;7.62;57.57
61676;BME280;47574;52.090;5.244;2023-12-04T01:56:36;101160.0;;;7.41;57.54
61676;BME280;47574;52.090;5.244;2023-12-04T01:58:13;101156.0;;;7.53;57.19
61676;BME280;47574;52.090;5.244;2023-12-04T02:01:28;101157.0;;;7.58;57.27
61676;BME280;47574;52.090;5.244;2023-12-04T02:03:06;101152.0;;;7.66;56.71
61676;BME280;47574;52.090;5.244;2023-12-04T02:04:44;101150.0;;;7.53;57.33
61676;BME280;47574;52.090;5.244;2023-12-04T02:07:59;101146.0;;;7.47;57.05
61676;BME280;47574;52.090;5.244;2023-12-04T02:09:38;101141.0;;;7.58;56.55
61676;BME280;47574;52.090;5.244;2023-12-04T02:11:14;101142.0;;;7.52;57.34
61676;BME280;47574;52.090;5.244;2023-12-04T02:12:52;101143.0;;;7.64;57.15
61676;BME280;47574;52.090;5.244;2023-12-04T02:16:09;101140.0;;;7.75;56.75
61676;BME280;47574;52.090;5.244;2023-12-04T02:17:47;101135.0;;;7.63;57.06
61676;BME280;47574;52.090;5.244;2023-12-04T02:19:23;101131.0;;;7.49;57.28
61676;BME280;47574;52.090;5.244;2023-12-04T02:22:37;101127.0;;;7.48;57.73
61676;BME280;47574;52.090;5.244;2023-12-04T02:24:14;101124.0;;;7.33;57.66
61676;BME280;47574;52.090;5.244;2023-12-04T02:25:54;101122.0;;;7.58;57.51
61676;BME280;47574;52.090;5.244;2023-12-04T02:27:39;101127.0;;;7.59;56.84
61676;BME280;47574;52.090;5.244;2023-12-04T02:31:04;101123.0;;;7.78;56.51
61676;BME280;47574;52.090;5.244;2023-12-04T02:32:45;101118.0;;;7.49;57.03
61676;BME280;47574;52.090;5.244;2023-12-04T02:34:23;101115.0;;;7.61;56.7
61676;BME280;47574;52.090;5.244;2023-12-04T02:36:01;101109.0;;;7.51;56.63
61676;BME280;47574;52.090;5.244;2023-12-04T02:39:19;101107.0;;;7.67;56.43
61676;BME280;47574;52.090;5.244;2023-12-04T02:40:56;101105.0;;;7.71;56.5
61676;BME280;47574;52.090;5.244;2023-12-04T02:42:34;101096.0;;;7.51;57.02
61676;BME280;47574;52.090;5.244;2023-12-04T02:44:11;101096.0;;;7.59;57.01
61676;BME280;47574;52.090;5.244;2023-12-04T02:47:24;101092.0;;;7.75;56.15
61676;BME280;47574;52.090;5.244;2023-12-04T02:49:00;101092.0;;;7.72;56.04
61676;BME280;47574;52.090;5.244;2023-12-04T02:50:36;101088.0;;;7.46;57.27
61676;BME280;47574;52.090;5.244;2023-12-04T02:53:49;101088.0;;;7.58;56.8
61676;BME280;47574;52.090;5.244;2023-12-04T02:55:28;101084.0;;;7.56;56.53
61676;BME280;47574;52.090;5.244;2023-12-04T02:57:05;101082.0;;;7.51;56.43
61676;BME280;47574;52.090;5.244;2023-12-04T03:00:18;101080.0;;;7.57;56.49
61676;BME280;47574;52.090;5.244;2023-12-04T03:01:54;101077.0;;;7.57;56.58
61676;BME280;47574;52.090;5.244;2023-12-04T03:03:30;101074.0;;;7.54;56.95
61676;BME280;47574;52.090;5.244;2023-12-04T03:05:06;101070.0;;;7.47;56.78
61676;BME280;47574;52.090;5.244;2023-12-04T03:08:18;101068.0;;;7.3;56.91
61676;BME280;47574;52.090;5.244;2023-12-04T03:09:54;101055.0;;;7.56;56.77
61676;BME280;47574;52.090;5.244;2023-12-04T03:11:31;101053.0;;;7.57;56.46
61676;BME280;47574;52.090;5.244;2023-12-04T03:14:43;101052.0;;;7.55;56.41
61676;BME280;47574;52.090;5.244;2023-12-04T03:16:19;101046.0;;;7.65;55.99
61676;BME280;47574;52.090;5.244;2023-12-04T03:17:55;101039.0;;;7.44;56.56
61676;BME280;47574;52.090;5.244;2023-12-04T03:21:07;101039.0;;;7.53;56.24
61676;BME280;47574;52.090;5.244;2023-12-04T03:22:43;101042.0;;;7.56;56.21
61676;BME280;47574;52.090;5.244;2023-12-04T03:24:19;101039.0;;;7.58;55.88
61676;BME280;47574;52.090;5.244;2023-12-04T03:25:55;101035.0;;;7.6;55.73
61676;BME280;47574;52.090;5.244;2023-12-04T03:29:08;101032.0;;;7.37;56.84
61676;BME280;47574;52.090;5.244;2023-12-04T03:30:43;101035.0;;;7.44;56.11
61676;BME280;47574;52.090;5.244;2023-12-04T03:32:20;101028.0;;;7.55;56.38
61676;BME280;47574;52.090;5.244;2023-12-04T03:35:32;101025.0;;;7.38;56.52
61676;BME280;47574;52.090;5.244;2023-12-04T03:37:08;101025.0;;;7.54;56.16
61676;BME280;47574;52.090;5.244;2023-12-04T03:38:44;101024.0;;;7.53;55.94
61676;BME280;47574;52.090;5.244;2023-12-04T03:41:57;101019.0;;;7.53;55.87
61676;BME280;47574;52.090;5.244;2023-12-04T03:43:33;101011.0;;;7.42;55.95
61676;BME280;47574;52.090;5.244;2023-12-04T03:45:09;101011.0;;;7.56;55.87
61676;BME280;47574;52.090;5.244;2023-12-04T03:48:21;101006.0;;;7.7;55.35
61676;BME280;47574;52.090;5.244;2023-12-04T03:49:57;101005.0;;;7.48;55.9
61676;BME280;47574;52.090;5.244;2023-12-04T03:51:33;101006.0;;;7.43;56.17
61676;BME280;47574;52.090;5.244;2023-12-04T03:53:10;101003.0;;;7.4;56.4
61676;BME280;47574;52.090;5.244;2023-12-04T03:56:21;100996.0;;;7.45;56.23
61676;BME280;47574;52.090;5.244;2023-12-04T03:57:58;100997.0;;;7.56;55.63
61676;BME280;47574;52.090;5.244;2023-12-04T03:59:35;100991.0;;;7.49;55.97
61676;BME280;47574;52.090;5.244;2023-12-04T04:02:47;100987.0;;;7.58;55.58
61676;BME280;47574;52.090;5.244;2023-12-04T04:04:23;100986.0;;;7.61;55.32
61676;BME280;47574;52.090;5.244;2023-12-04T04:05:59;100975.0;;;7.66;54.97
61676;BME280;47574;52.090;5.244;2023-12-04T04:09:11;100977.0;;;7.67;55.14
61676;BME280;47574;52.090;5.244;2023-12-04T04:10:47;100971.0;;;7.59;55.18
61676;BME280;47574;52.090;5.244;2023-12-04T04:12:23;100967.0;;;7.43;55.66
61676;BME280;47574;52.090;5.244;2023-12-04T04:15:36;100970.0;;;7.36;56.04
61676;BME280;47574;52.090;5.244;2023-12-04T04:17:12;100965.0;;;7.57;55.53
61676;BME280;47574;52.090;5.244;2023-12-04T04:18:48;100963.0;;;7.5;55.22
61676;BME280;47574;52.090;5.244;2023-12-04T04:20:24;100965.0;;;7.37;55.77
61676;BME280;47574;52.090;5.244;2023-12-04T04:23:36;100966.0;;;7.42;55.62
61676;BME280;47574;52.090;5.244;2023-12-04T04:25:12;100964.0;;;7.46;55.66
61676;BME280;47574;52.090;5.244;2023-12-04T04:26:48;100958.0;;;7.45;55.3
61676;BME280;47574;52.090;5.244;2023-12-04T04:30:01;100963.0;;;7.43;55.71
61676;BME280;47574;52.090;5.244;2023-12-04T04:31:38;100955.0;;;7.42;55.83
61676;BME280;47574;52.090;5.244;2023-12-04T04:33:14;100950.0;;;7.63;54.78
61676;BME280;47574;52.090;5.244;2023-12-04T04:36:26;100944.0;;;7.53;55.95
61676;BME280;47574;52.090;5.244;2023-12-04T04:38:02;100945.0;;;7.47;55.53
61676;BME280;47574;52.090;5.244;2023-12-04T04:39:39;100938.0;;;7.44;55.16
61676;BME280;47574;52.090;5.244;2023-12-04T04:41:15;100943.0;;;7.59;54.88
61676;BME280;47574;52.090;5.244;2023-12-04T04:44:27;100949.0;;;7.57;54.77
61676;BME280;47574;52.090;5.244;2023-12-04T04:46:04;100946.0;;;7.43;55.38
61676;BME280;47574;52.090;5.244;2023-12-04T04:47:40;100946.0;;;7.43;55.18
61676;BME280;47574;52.090;5.244;2023-12-04T04:50:52;100946.0;;;7.49;54.86
61676;BME280;47574;52.090;5.244;2023-12-04T04:52:28;100949.0;;;7.54;55.06
61676;BME280;47574;52.090;5.244;2023-12-04T04:54:04;100943.0;;;7.43;55.09
61676;BME280;47574;52.090;5.244;2023-12-04T04:57:16;100939.0;;;7.47;54.79
61676;BME280;47574;52.090;5.244;2023-12-04T04:58:52;100944.0;;;7.6;54.57
61676;BME280;47574;52.090;5.244;2023-12-04T05:00:28;100934.0;;;7.48;55.04
61676;BME280;47574;52.090;5.244;2023-12-04T05:03:41;100930.0;;;7.48;54.82
61676;BME280;47574;52.090;5.244;2023-12-04T05:05:17;100928.0;;;7.41;54.38
61676;BME280;47574;52.090;5.244;2023-12-04T05:06:53;100933.0;;;7.66;54.17
61676;BME280;47574;52.090;5.244;2023-12-04T05:08:29;100930.0;;;7.38;54.56
61676;BME280;47574;52.090;5.244;2023-12-04T05:11:42;100926.0;;;7.6;54.43
61676;BME280;47574;52.090;5.244;2023-12-04T05:13:18;100927.0;;;7.71;54.15
61676;BME280;47574;52.090;5.244;2023-12-04T05:14:54;100926.0;;;7.61;54.15
61676;BME280;47574;52.090;5.244;2023-12-04T05:18:06;100924.0;;;7.66;54.29
61676;BME280;47574;52.090;5.244;2023-12-04T05:19:42;100921.0;;;7.46;54.67
61676;BME280;47574;52.090;5.244;2023-12-04T05:21:19;100926.0;;;7.63;54.46
61676;BME280;47574;52.090;5.244;2023-12-04T05:24:32;100919.0;;;7.53;54.33
61676;BME280;47574;52.090;5.244;2023-12-04T05:26:08;100912.0;;;7.44;54.74
61676;BME280;47574;52.090;5.244;2023-12-04T05:27:44;100913.0;;;7.68;54.29
61676;BME280;47574;52.090;5.244;2023-12-04T05:30:56;100911.0;;;7.63;54.03
61676;BME280;47574;52.090;5.244;2023-12-04T05:32:33;100905.0;;;7.56;54.38
61676;BME280;47574;52.090;5.244;2023-12-04T05:34:09;100905.0;;;7.63;53.93
61676;BME280;47574;52.090;5.244;2023-12-04T05:35:47;100899.0;;;7.52;54.86
61676;BME280;47574;52.090;5.244;2023-12-04T05:38:59;100893.0;;;7.53;53.99
61676;BME280;47574;52.090;5.244;2023-12-04T05:40:35;100886.0;;;7.56;54.18
61676;BME280;47574;52.090;5.244;2023-12-04T05:42:11;100885.0;;;7.67;53.94
61676;BME280;47574;52.090;5.244;2023-12-04T05:45:23;100882.0;;;7.65;53.86
61676;BME280;47574;52.090;5.244;2023-12-04T05:46:59;100880.0;;;7.64;53.69
61676;BME280;47574;52.090;5.244;2023-12-04T05:48:35;100880.0;;;7.42;54.35
61676;BME280;47574;52.090;5.244;2023-12-04T05:51:48;100876.0;;;7.54;53.93
61676;BME280;47574;52.090;5.244;2023-12-04T05:53:24;100871.0;;;7.63;53.73
61676;BME280;47574;52.090;5.244;2023-12-04T05:55:00;100874.0;;;7.64;54.18
61676;BME280;47574;52.090;5.244;2023-12-04T05:56:36;100873.0;;;7.7;53.89
61676;BME280;47574;52.090;5.244;2023-12-04T05:59:48;100873.0;;;7.73;53.76
61676;BME280;47574;52.090;5.244;2023-12-04T06:01:24;100869.0;;;7.49;54.35
61676;BME280;47574;52.090;5.244;2023-12-04T06:03:00;100866.0;;;7.57;54.09
61676;BME280;47574;52.090;5.244;2023-12-04T06:06:12;100865.0;;;7.49;54.24
61676;BME280;47574;52.090;5.244;2023-12-04T06:07:49;100863.0;;;7.59;53.81
61676;BME280;47574;52.090;5.244;2023-12-04T06:09:25;100863.0;;;7.63;54.09
61676;BME280;47574;52.090;5.244;2023-12-04T06:12:37;100863.0;;;7.8;53.29
61676;BME280;47574;52.090;5.244;2023-12-04T06:14:13;100867.0;;;7.76;53.49
61676;BME280;47574;52.090;5.244;2023-12-04T06:15:49;100865.0;;;7.62;53.91
61676;BME280;47574;52.090;5.244;2023-12-04T06:19:02;100860.0;;;7.72;53.32
61676;BME280;47574;52.090;5.244;2023-12-04T06:20:38;100851.0;;;7.44;53.6
61676;BME280;47574;52.090;5.244;2023-12-04T06:22:14;100860.0;;;7.52;53.64
61676;BME280;47574;52.090;5.244;2023-12-04T06:23:51;100862.0;;;7.72;53.54
61676;BME280;47574;52.090;5.244;2023-12-04T06:27:06;100857.0;;;7.61;53.53
61676;BME280;47574;52.090;5.244;2023-12-04T06:28:43;100855.0;;;7.72;53.23
61676;BME280;47574;52.090;5.244;2023-12-04T06:30:20;100845.0;;;7.69;52.79
61676;BME280;47574;52.090;5.244;2023-12-04T06:33:33;100841.0;;;7.56;53.02
61676;BME280;47574;52.090;5.244;2023-12-04T06:35:11;100843.0;;;7.65;52.82
61676;BME280;47574;52.090;5.244;2023-12-04T06:36:47;100843.0;;;7.76;53.22
61676;BME280;47574;52.090;5.244;2023-12-04T06:38:24;100835.0;;;7.7;52.5
61676;BME280;47574;52.090;5.244;2023-12-04T06:41:40;100834.0;;;7.65;52.67
61676;BME280;47574;52.090;5.244;2023-12-04T06:43:16;100832.0;;;7.68;52.75
61676;BME280;47574;52.090;5.244;2023-12-04T06:44:52;100814.0;;;7.45;53.41
61676;BME280;47574;52.090;5.244;2023-12-04T06:48:13;100830.0;;;7.6;53.04
61676;BME280;47574;52.090;5.244;2023-12-04T06:49:50;100824.0;;;7.68;52.38
61676;BME280;47574;52.090;5.244;2023-12-04T06:51:26;100820.0;;;7.62;53.22
61676;BME280;47574;52.090;5.244;2023-12-04T06:53:03;100815.0;;;7.47;52.95
61676;BME280;47574;52.090;5.244;2023-12-04T06:56:15;100810.0;;;7.58;52.34
61676;BME280;47574;52.090;5.244;2023-12-04T06:57:51;100806.0;;;7.61;52.29
61676;BME280;47574;52.090;5.244;2023-12-04T06:59:27;100817.0;;;7.64;52.65
61676;BME280;47574;52.090;5.244;2023-12-04T07:02:39;100809.0;;;7.56;52.37
61676;BME280;47574;52.090;5.244;2023-12-04T07:04:15;100803.0;;;7.66;51.86
61676;BME280;47574;52.090;5.244;2023-12-04T07:05:51;100806.0;;;7.72;52.49
61676;BME280;47574;52.090;5.244;2023-12-04T07:09:04;100798.0;;;7.75;52.62
61676;BME280;47574;52.090;5.244;2023-12-04T07:10:41;100799.0;;;7.79;52.14
61676;BME280;47574;52.090;5.244;2023-12-04T07:12:17;100795.0;;;7.71;52.69
61676;BME280;47574;52.090;5.244;2023-12-04T07:15:29;100798.0;;;7.85;52.25
61676;BME280;47574;52.090;5.244;2023-12-04T07:17:05;100795.0;;;7.61;52.52
61676;BME280;47574;52.090;5.244;2023-12-04T07:18:41;100794.0;;;7.68;51.82
61676;BME280;47574;52.090;5.244;2023-12-04T07:20:17;100782.0;;;7.71;52.18
61676;BME280;47574;52.090;5.244;2023-12-04T07:23:29;100787.0;;;7.55;52.11
61676;BME280;47574;52.090;5.244;2023-12-04T07:25:05;100794.0;;;7.73;52.35
61676;BME280;47574;52.090;5.244;2023-12-04T07:26:42;100797.0;;;7.73;51.91
61676;BME280;47574;52.090;5.244;2023-12-04T07:29:54;100799.0;;;7.76;51.95
61676;BME280;47574;52.090;5.244;2023-12-04T07:31:30;100794.0;;;7.68;51.83
61676;BME280;47574;52.090;5.244;2023-12-04T07:33:06;100793.0;;;7.94;51.3
61676;BME280;47574;52.090;5.244;2023-12-04T07:36:18;100798.0;;;7.74;51.38
61676;BME280;47574;52.090;5.244;2023-12-04T07:37:54;100798.0;;;7.83;51.86
61676;BME280;47574;52.090;5.244;2023-12-04T07:39:30;100791.0;;;7.8;51.45
61676;BME280;47574;52.090;5.244;2023-12-04T07:42:42;100788.0;;;7.8;50.98
61676;BME280;47574;52.090;5.244;2023-12-04T07:44:19;100789.0;;;7.72;51.94
61676;BME280;47574;52.090;5.244;2023-12-04T07:45:55;100786.0;;;7.62;51.73
61676;BME280;47574;52.090;5.244;2023-12-04T07:47:31;100785.0;;;7.69;51.93
61676;BME280;47574;52.090;5.244;2023-12-04T07:50:43;100784.0;;;7.74;51.61
61676;BME280;47574;52.090;5.244;2023-12-04T07:52:19;100787.0;;;7.66;51.61
61676;BME280;47574;52.090;5.244;2023-12-04T07:53:55;100780.0;;;7.71;51.64
61676;BME280;47574;52.090;5.244;2023-12-04T07:57:07;100782.0;;;7.7;51.43
61676;BME280;47574;52.090;5.244;2023-12-04T07:58:43;100776.0;;;7.8;51.05
61676;BME280;47574;52.090;5.244;2023-12-04T08:00:20;100780.0;;;7.79;51.71
61676;BME280;47574;52.090;5.244;2023-12-04T08:03:32;100773.0;;;7.97;51.13
61676;BME280;47574;52.090;5.244;2023-12-04T08:05:08;100778.0;;;8.01;50.43
61676;BME280;47574;52.090;5.244;2023-12-04T08:06:44;100780.0;;;7.87;50.36
61676;BME280;47574;52.090;5.244;2023-12-04T08:09:56;100773.0;;;8.17;49.49
61676;BME280;47574;52.090;5.244;2023-12-04T08:11:32;100780.0;;;7.89;50.48
61676;BME280;47574;52.090;5.244;2023-12-04T08:13:08;100783.0;;;7.87;50.56
61676;BME280;47574;52.090;5.244;2023-12-04T08:14:44;100782.0;;;7.94;51.25
61676;BME280;47574;52.090;5.244;2023-12-04T08:17:57;100777.0;;;7.98;49.76
61676;BME280;47574;52.090;5.244;2023-12-04T08:19:33;100785.0;;;8.16;49.7
61676;BME280;47574;52.090;5.244;2023-12-04T08:21:09;100780.0;;;7.96;49.92
61676;BME280;47574;52.090;5.244;2023-12-04T08:24:21;100782.0;;;7.98;50.38
61676;BME280;47574;52.090;5.244;2023-12-04T08:25:57;100776.0;;;7.97;49.85
61676;BME280;47574;52.090;5.244;2023-12-04T08:27:33;100774.0;;;7.9;49.31
61676;BME280;47574;52.090;5.244;2023-12-04T08:30:45;100774.0;;;8.07;49.37
61676;BME280;47574;52.090;5.244;2023-12-04T08:32:21;100774.0;;;8.06;50.17
61676;BME280;47574;52.090;5.244;2023-12-04T08:33:58;100769.0;;;7.94;49.76
61676;BME280;47574;52.090;5.244;2023-12-04T08:35:34;100770.0;;;8.05;48.9
61676;BME280;47574;52.090;5.244;2023-12-04T08:38:46;100765.0;;;7.96;48.83
61676;BME280;47574;52.090;5.244;2023-12-04T08:40:22;100756.0;;;8.0;48.5
61676;BME280;47574;52.090;5.244;2023-12-04T08:41:58;100756.0;;;8.0;48.69
61676;BME280;47574;52.090;5.244;2023-12-04T08:45:10;100755.0;;;7.9;49.04
61676;BME280;47574;52.090;5.244;2023-12-04T08:46:46;100744.0;;;7.92;48.81
61676;BME280;47574;52.090;5.244;2023-12-04T08:48:23;100751.0;;;7.73;49.5
61676;BME280;47574;52.090;5.244;2023-12-04T08:51:36;100743.0;;;7.78;49.08
61676;BME280;47574;52.090;5.244;2023-12-04T08:53:12;100738.0;;;7.75;48.25
61676;BME280;47574;52.090;5.244;2023-12-04T08:54:48;100738.0;;;7.94;48.76
61676;BME280;47574;52.090;5.244;2023-12-04T08:58:00;100735.0;;;7.88;48.28
61676;BME280;47574;52.090;5.244;2023-12-04T08:59:36;100731.0;;;8.03;48.32
61676;BME280;47574;52.090;5.244;2023-12-04T09:01:12;100726.0;;;8.07;48.1
61676;BME280;47574;52.090;5.244;2023-12-04T09:02:48;100730.0;;;8.06;48.59
61676;BME280;47574;52.090;5.244;2023-12-04T09:06:01;100732.0;;;8.06;48.35
61676;BME280;47574;52.090;5.244;2023-12-04T09:07:37;100720.0;;;8.18;47.79
61676;BME280;47574;52.090;5.244;2023-12-04T09:09:13;100723.0;;;8.14;48.03
61676;BME280;47574;52.090;5.244;2023-12-04T09:12:25;100720.0;;;8.28;48.22
61676;BME280;47574;52.090;5.244;2023-12-04T09:14:01;100714.0;;;8.22;47.59
61676;BME280;47574;52.090;5.244;2023-12-04T09:15:37;100718.0;;;8.26;47.2
61676;BME280;47574;52.090;5.244;2023-12-04T09:18:50;100714.0;;;8.14;47.67
61676;BME280;47574;52.090;5.244;2023-12-04T09:20:26;100713.0;;;8.24;47.81
61676;BME280;47574;52.090;5.244;2023-12-04T09:22:03;100712.0;;;8.35;46.57
61676;BME280;47574;52.090;5.244;2023-12-04T09:25:15;100715.0;;;8.23;46.57
61676;BME280;47574;52.090;5.244;2023-12-04T09:26:51;100708.0;;;8.24;46.56
61676;BME280;47574;52.090;5.244;2023-12-04T09:28:27;100708.0;;;8.23;46.5
61676;BME280;47574;52.090;5.244;2023-12-04T09:30:04;100707.0;;;8.31;47.39
61676;BME280;47574;52.090;5.244;2023-12-04T09:33:16;100709.0;;;8.28;46.23
61676;BME280;47574;52.090;5.244;2023-12-04T09:34:52;100705.0;;;8.33;46.8
61676;BME280;47574;52.090;5.244;2023-12-04T09:36:28;100705.0;;;8.47;46.1
61676;BME280;47574;52.090;5.244;2023-12-04T09:39:41;100710.0;;;8.51;46.67
61676;BME280;47574;52.090;5.244;2023-12-04T09:41:17;100710.0;;;8.55;46.58
61676;BME280;47574;52.090;5.244;2023-12-04T09:42:54;100708.0;;;8.48;45.57
61676;BME280;47574;52.090;5.244;2023-12-04T09:46:09;100711.0;;;8.57;45.69
61676;BME280;47574;52.090;5.244;2023-12-04T09:47:47;100712.0;;;8.56;45.83
61676;BME280;47574;52.090;5.244;2023-12-04T09:49:26;100713.0;;;8.53;46.14
61676;BME280;47574;52.090;5.244;2023-12-04T09:51:05;100709.0;;;8.52;46.15
61676;BME280;47574;52.090;5.244;2023-12-04T09:54:19;100720.0;;;8.43;46.01
61676;BME280;47574;52.090;5.244;2023-12-04T09:55:57;100716.0;;;8.64;45.24
61676;BME280;47574;52.090;5.244;2023-12-04T09:57:35;100716.0;;;8.41;45.18
61676;BME280;47574;52.090;5.244;2023-12-04T10:00:52;100711.0;;;8.61;46.25
61676;BME280;47574;52.090;5.244;2023-12-04T10:02:29;100706.0;;;8.42;45.37
61676;BME280;47574;52.090;5.244;2023-12-04T10:04:06;100709.0;;;8.55;45.58
61676;BME280;47574;52.090;5.244;2023-12-04T10:05:44;100705.0;;;8.42;45.8
61676;BME280;47574;52.090;5.244;2023-12-04T10:08:56;100698.0;;;8.38;46.18
61676;BME280;47574;52.090;5.244;2023-12-04T10:10:32;100698.0;;;8.58;46.27
61676;BME280;47574;52.090;5.244;2023-12-04T10:12:09;100696.0;;;8.6;45.75
61676;BME280;47574;52.090;5.244;2023-12-04T10:15:21;100689.0;;;8.65;44.94
61676;BME280;47574;52.090;5.244;2023-12-04T10:16:57;100680.0;;;8.56;45.07
61676;BME280;47574;52.090;5.244;2023-12-04T10:18:33;100683.0;;;8.58;45.72
61676;BME280;47574;52.090;5.244;2023-12-04T10:20:11;100678.0;;;8.63;45.22
61676;BME280;47574;52.090;5.244;2023-12-04T10:23:36;100677.0;;;8.57;45.27
61676;BME280;47574;52.090;5.244;2023-12-04T10:25:14;100671.0;;;8.64;45.79
61676;BME280;47574;52.090;5.244;2023-12-04T10:26:51;100673.0;;;8.6;45.67
61676;BME280;47574;52.090;5.244;2023-12-04T10:30:04;100667.0;;;8.48;46.04
61676;BME280;47574;52.090;5.244;2023-12-04T10:31:40;100663.0;;;8.53;45.89
61676;BME280;47574;52.090;5.244;2023-12-04T10:33:16;100660.0;;;8.73;45.0
61676;BME280;47574;52.090;5.244;2023-12-04T10:34:54;100655.0;;;8.77;45.0
61676;BME280;47574;52.090;5.244;2023-12-04T10:38:07;100651.0;;;8.6;46.12
61676;BME280;47574;52.090;5.244;2023-12-04T10:39:46;100646.0;;;8.69;45.91
61676;BME280;47574;52.090;5.244;2023-12-04T10:41:22;100645.0;;;8.73;46.01
61676;BME280;47574;52.090;5.244;2023-12-04T10:45:05;100638.0;;;8.78;46.26
61676;BME280;47574;52.090;5.244;2023-12-04T10:46:41;100630.0;;;8.96;45.44
61676;BME280;47574;52.090;5.244;2023-12-04T10:48:19;100625.0;;;8.94;45.22
61676;BME280;47574;52.090;5.244;2023-12-04T10:49:55;100621.0;;;8.68;45.22
61676;BME280;47574;52.090;5.244;2023-12-04T10:53:08;100619.0;;;8.77;45.21
61676;BME280;47574;52.090;5.244;2023-12-04T10:54:45;100619.0;;;8.71;45.45
61676;BME280;47574;52.090;5.244;2023-12-04T10:56:26;100616.0;;;8.78;46.16
61676;BME280;47574;52.090;5.244;2023-12-04T10:58:06;100610.0;;;8.75;45.45
61676;BME280;47574;52.090;5.244;2023-12-04T11:01:22;100600.0;;;8.83;45.51
61676;BME280;47574;52.090;5.244;2023-12-04T11:03:03;100596.0;;;8.91;45.29
61676;BME280;47574;52.090;5.244;2023-12-04T11:04:41;100594.0;;;8.83;46.23
61676;BME280;47574;52.090;5.244;2023-12-04T11:06:20;100590.0;;;8.83;46.76
61676;BME280;47574;52.090;5.244;2023-12-04T11:09:37;100594.0;;;8.92;46.16
61676;BME280;47574;52.090;5.244;2023-12-04T11:11:15;100588.0;;;8.8;45.52
61676;BME280;47574;52.090;5.244;2023-12-04T11:13:02;100588.0;;;8.92;46.08
61676;BME280;47574;52.090;5.244;2023-12-04T11:14:49;100580.0;;;8.92;45.5